Colchester, Illinois
Current Conditions -  °F | °C
As of 9:35 AM on Monday 22 Dec 2014 (Local Time) from KMQB Reporting Station
Light Rain Light Rain  
Wind Chill: 28°   Ceiling: 800
Heat Index: 36°   Visibility: 2.5mi
Dew Point: 36°   Wind: 13mph
Humidity: 98%   Direction: 110°ESE
Pressure: 29.74"   Gusts: NA
Location:  40.43°N, 90.79°W
Report Text: KMQB 221535Z AUTO 11011KT 2 1/2SM -RA BKN008 OVC025 02/02 A2974 RMK AO2 P0002 T00230020
Loading
Personal Weather Stations






























Interactive Weather Map New forecast layout! Learn more

10-Day Weather Forecast

Advertisements
Track Severe Weather on mobile